createdAt,value
2023-02-15T00:01:46.307Z,1023.8
2023-02-15T00:03:46.293Z,1023.9
2023-02-15T00:05:46.302Z,1024
2023-02-15T00:07:46.267Z,1024.1
2023-02-15T00:09:46.252Z,1024.2
2023-02-15T00:11:46.237Z,1024.2
2023-02-15T00:13:46.250Z,1024.2
2023-02-15T00:15:46.295Z,1024.2
2023-02-15T00:17:46.376Z,1024.2
2023-02-15T00:19:46.293Z,1024.2
2023-02-15T00:21:46.257Z,1024.2
2023-02-15T00:23:46.376Z,1024.2
2023-02-15T00:25:46.441Z,1024.2
2023-02-15T00:27:46.353Z,1024.2
2023-02-15T00:29:46.330Z,1024.3
2023-02-15T00:31:46.242Z,1024.3
2023-02-15T00:33:46.261Z,1024.3
2023-02-15T00:35:46.392Z,1024.4
2023-02-15T00:37:46.343Z,1024.4
2023-02-15T00:39:46.332Z,1024.4
2023-02-15T00:41:46.551Z,1024.4
2023-02-15T00:43:46.334Z,1024.5
2023-02-15T00:45:46.466Z,1024.5
2023-02-15T00:47:46.312Z,1024.5
2023-02-15T00:49:46.328Z,1024.6
2023-02-15T00:51:46.366Z,1024.6
2023-02-15T00:53:46.437Z,1024.6
2023-02-15T00:55:46.336Z,1024.6
2023-02-15T00:57:46.365Z,1024.6
2023-02-15T00:59:46.509Z,1024.7
2023-02-15T01:01:46.317Z,1024.7
2023-02-15T01:03:46.289Z,1024.7
2023-02-15T01:05:46.272Z,1024.7
2023-02-15T01:07:46.220Z,1024.7
2023-02-15T01:09:46.324Z,1024.8
2023-02-15T01:11:46.295Z,1024.7
2023-02-15T01:13:46.241Z,1024.8
2023-02-15T01:15:46.323Z,1024.8
2023-02-15T01:17:46.329Z,1024.8
2023-02-15T01:19:46.282Z,1024.9
2023-02-15T01:21:46.366Z,1024.9
2023-02-15T01:23:46.294Z,1024.9
2023-02-15T01:25:46.293Z,1024.9
2023-02-15T01:27:46.237Z,1024.9
2023-02-15T01:29:46.243Z,1024.9
2023-02-15T01:31:46.350Z,1025
2023-02-15T01:33:46.295Z,1025
2023-02-15T01:35:46.446Z,1025
2023-02-15T01:37:46.305Z,1025
2023-02-15T01:39:46.287Z,1025
2023-02-15T01:41:46.218Z,1025
2023-02-15T01:43:46.212Z,1025
2023-02-15T01:45:46.373Z,1025.1
2023-02-15T01:47:46.347Z,1025
2023-02-15T01:49:46.174Z,1025
2023-02-15T01:51:46.585Z,1025
2023-02-15T01:53:46.476Z,1025.1
2023-02-15T01:55:46.296Z,1025.1
2023-02-15T01:57:46.331Z,1025.1
2023-02-15T01:59:46.162Z,1025.1
2023-02-15T02:01:46.295Z,1025.1
2023-02-15T02:03:46.205Z,1025
2023-02-15T02:05:46.211Z,1025
2023-02-15T02:07:46.265Z,1025
2023-02-15T02:09:46.121Z,1025
2023-02-15T02:11:46.124Z,1025
2023-02-15T02:13:46.425Z,1024.9
2023-02-15T02:15:46.202Z,1024.9
2023-02-15T02:17:46.216Z,1025
2023-02-15T02:19:46.274Z,1025
2023-02-15T02:21:46.144Z,1025.1
2023-02-15T02:23:46.269Z,1025.1
2023-02-15T02:25:46.297Z,1025.1
2023-02-15T02:27:46.150Z,1025.2
2023-02-15T02:29:46.247Z,1025.2
2023-02-15T02:31:46.317Z,1025.1
2023-02-15T02:33:46.306Z,1025
2023-02-15T02:35:46.160Z,1024.9
2023-02-15T02:37:46.269Z,1024.9
2023-02-15T02:39:46.086Z,1024.9
2023-02-15T02:41:46.176Z,1024.9
2023-02-15T02:43:46.193Z,1025
2023-02-15T02:45:46.274Z,1025
2023-02-15T02:47:46.414Z,1025
2023-02-15T02:49:46.446Z,1025
2023-02-15T02:51:50.381Z,1025
2023-02-15T02:53:46.123Z,1025
2023-02-15T02:55:46.160Z,1025
2023-02-15T02:57:46.141Z,1024.9
2023-02-15T02:59:46.086Z,1024.9
2023-02-15T03:01:46.201Z,1024.9
2023-02-15T03:03:46.180Z,1025
2023-02-15T03:05:46.196Z,1025
2023-02-15T03:07:46.143Z,1025.1
2023-02-15T03:09:46.102Z,1025
2023-02-15T03:11:46.123Z,1025
2023-02-15T03:13:46.201Z,1025
2023-02-15T03:15:46.380Z,1025.1
2023-02-15T03:17:46.126Z,1025.2
2023-02-15T03:19:46.095Z,1025.2
2023-02-15T03:21:46.113Z,1025.2
2023-02-15T03:23:46.200Z,1025.1
2023-02-15T03:25:46.181Z,1025.1
2023-02-15T03:27:46.196Z,1025.1
2023-02-15T03:29:46.078Z,1025
2023-02-15T03:31:46.297Z,1025
2023-02-15T03:33:46.196Z,1025
2023-02-15T03:35:46.030Z,1025
2023-02-15T03:37:46.138Z,1025.1
2023-02-15T03:39:46.069Z,1025.2
2023-02-15T03:41:46.271Z,1025.2
2023-02-15T03:43:46.073Z,1025.1
2023-02-15T03:45:46.203Z,1025.2
2023-02-15T03:47:46.035Z,1025.2
2023-02-15T03:49:46.104Z,1025.2
2023-02-15T03:51:46.207Z,1025.1
2023-02-15T03:53:46.266Z,1025.1
2023-02-15T03:55:46.264Z,1025.1
2023-02-15T03:57:46.234Z,1025.1
2023-02-15T03:59:46.151Z,1025.1
2023-02-15T04:01:46.168Z,1025.1
2023-02-15T04:03:46.116Z,1025
2023-02-15T04:05:46.152Z,1025.1
2023-02-15T04:07:45.991Z,1025
2023-02-15T04:09:46.094Z,1025
2023-02-15T04:11:46.133Z,1025
2023-02-15T04:13:46.019Z,1024.9
2023-02-15T04:15:46.291Z,1024.8
2023-02-15T04:17:46.063Z,1024.9
2023-02-15T04:19:46.048Z,1024.9
2023-02-15T04:21:46.142Z,1025
2023-02-15T04:23:46.123Z,1025
2023-02-15T04:26:00.827Z,1024.9
2023-02-15T04:27:46.058Z,1024.9
2023-02-15T04:29:46.080Z,1024.9
2023-02-15T04:31:46.168Z,1024.9
2023-02-15T04:33:46.138Z,1024.9
2023-02-15T04:35:46.006Z,1024.9
2023-02-15T04:37:46.141Z,1024.8
2023-02-15T04:39:46.107Z,1024.8
2023-02-15T04:41:46.056Z,1024.7
2023-02-15T04:43:46.152Z,1024.7
2023-02-15T04:45:46.118Z,1024.7
2023-02-15T04:47:46.202Z,1024.7
2023-02-15T04:49:46.031Z,1024.7
2023-02-15T04:51:46.031Z,1024.6
2023-02-15T04:53:46.117Z,1024.5
2023-02-15T04:55:46.032Z,1024.5
2023-02-15T04:57:46.086Z,1024.4
2023-02-15T04:59:45.951Z,1024.3
2023-02-15T05:01:46.061Z,1024.2
2023-02-15T05:03:46.033Z,1024.2
2023-02-15T05:05:45.928Z,1024.1
2023-02-15T05:07:46.070Z,1024.1
2023-02-15T05:09:46.143Z,1024.1
2023-02-15T05:11:46.087Z,1024.1
2023-02-15T05:13:45.952Z,1024.1
2023-02-15T05:15:46.077Z,1024.1
2023-02-15T05:17:46.063Z,1024
2023-02-15T05:19:46.309Z,1024
2023-02-15T05:21:46.064Z,1023.9
2023-02-15T05:23:46.184Z,1023.8
2023-02-15T05:25:46.074Z,1023.8
2023-02-15T05:27:45.889Z,1023.8
2023-02-15T05:29:46.120Z,1023.9
2023-02-15T05:31:46.185Z,1023.9
2023-02-15T05:33:46.107Z,1023.8
2023-02-15T05:35:45.940Z,1023.8
2023-02-15T05:37:46.296Z,1023.8
2023-02-15T05:39:46.272Z,1023.8
2023-02-15T05:41:46.116Z,1023.8
2023-02-15T05:43:46.091Z,1023.7
2023-02-15T05:45:46.005Z,1023.7
2023-02-15T05:47:46.165Z,1023.6
2023-02-15T05:49:46.205Z,1023.5
2023-02-15T05:51:46.025Z,1023.5
2023-02-15T05:53:45.989Z,1023.5
2023-02-15T05:55:46.196Z,1023.5
2023-02-15T05:57:46.088Z,1023.5
2023-02-15T05:59:46.008Z,1023.5
2023-02-15T06:01:45.978Z,1023.5
2023-02-15T06:03:46.299Z,1023.5
2023-02-15T06:05:45.932Z,1023.5
2023-02-15T06:07:45.873Z,1023.5
2023-02-15T06:09:45.821Z,1023.5
2023-02-15T06:11:45.996Z,1023.5
2023-02-15T06:13:46.106Z,1023.5
2023-02-15T06:15:45.995Z,1023.5
2023-02-15T06:17:45.961Z,1023.5
2023-02-15T06:19:45.999Z,1023.5
2023-02-15T06:21:45.957Z,1023.4
2023-02-15T06:23:46.017Z,1023.4
2023-02-15T06:25:46.303Z,1023.4
2023-02-15T06:27:45.911Z,1023.3
2023-02-15T06:29:45.965Z,1023.4
2023-02-15T06:31:45.998Z,1023.4
2023-02-15T06:33:45.901Z,1023.4
2023-02-15T06:35:45.909Z,1023.4
2023-02-15T06:37:45.848Z,1023.4
2023-02-15T06:39:45.968Z,1023.4
2023-02-15T06:41:46.152Z,1023.4
2023-02-15T06:43:45.986Z,1023.4
2023-02-15T06:45:45.935Z,1023.4
2023-02-15T06:47:46.004Z,1023.4
2023-02-15T06:49:45.968Z,1023.3
2023-02-15T06:51:45.971Z,1023.4
2023-02-15T06:53:45.831Z,1023.4
2023-02-15T06:55:46.044Z,1023.4
2023-02-15T06:57:46.086Z,1023.4
2023-02-15T06:59:45.779Z,1023.3
2023-02-15T07:01:46.013Z,1023.3
2023-02-15T07:03:46.034Z,1023.3
2023-02-15T07:05:45.875Z,1023.3
2023-02-15T07:07:46.009Z,1023.3
2023-02-15T07:09:46.138Z,1023.4
2023-02-15T07:11:45.924Z,1023.4
2023-02-15T07:13:45.918Z,1023.4
2023-02-15T07:15:45.947Z,1023.3
2023-02-15T07:17:46.028Z,1023.4
2023-02-15T07:19:45.992Z,1023.4
2023-02-15T07:21:46.098Z,1023.4
2023-02-15T07:23:45.845Z,1023.4
2023-02-15T07:25:46.156Z,1023.6
2023-02-15T07:27:46.123Z,1023.7
2023-02-15T07:29:45.844Z,1023.7
2023-02-15T07:31:45.843Z,1023.6
2023-02-15T07:33:45.811Z,1023.6
2023-02-15T07:35:45.832Z,1023.6
2023-02-15T07:37:45.755Z,1023.7
2023-02-15T07:39:45.786Z,1023.8
2023-02-15T07:41:45.823Z,1023.8
2023-02-15T07:43:45.771Z,1023.8
2023-02-15T07:45:45.951Z,1023.7
2023-02-15T07:47:45.837Z,1023.7
2023-02-15T07:49:45.935Z,1023.7
2023-02-15T07:51:45.780Z,1023.8
2023-02-15T07:53:45.826Z,1023.7
2023-02-15T07:55:45.686Z,1023.7
2023-02-15T07:57:45.866Z,1023.7
2023-02-15T07:59:45.821Z,1023.8
2023-02-15T08:01:45.759Z,1023.7
2023-02-15T08:03:45.878Z,1023.6
2023-02-15T08:05:45.741Z,1023.6
2023-02-15T08:07:45.851Z,1023.5
2023-02-15T08:09:45.713Z,1023.5
2023-02-15T08:11:45.758Z,1023.5
2023-02-15T08:13:45.808Z,1023.5
2023-02-15T08:15:45.759Z,1023.5
2023-02-15T08:17:45.758Z,1023.5
2023-02-15T08:19:45.822Z,1023.5
2023-02-15T08:21:45.967Z,1023.5
2023-02-15T08:23:45.669Z,1023.6
2023-02-15T08:25:45.821Z,1023.6
2023-02-15T08:27:45.876Z,1023.6
2023-02-15T08:29:45.843Z,1023.6
2023-02-15T08:31:45.950Z,1023.6
2023-02-15T08:33:45.853Z,1023.6
2023-02-15T08:35:45.737Z,1023.7
2023-02-15T08:37:45.663Z,1023.7
2023-02-15T08:39:45.663Z,1023.7
2023-02-15T08:41:45.714Z,1023.6
2023-02-15T08:43:45.795Z,1023.6
2023-02-15T08:45:46.105Z,1023.6
2023-02-15T08:47:45.757Z,1023.6
2023-02-15T08:49:45.682Z,1023.7
2023-02-15T08:51:45.709Z,1023.5
2023-02-15T08:53:45.882Z,1023.5
2023-02-15T08:55:45.602Z,1023.4
2023-02-15T08:57:45.927Z,1023.4
2023-02-15T08:59:45.785Z,1023.4
2023-02-15T09:01:45.653Z,1023.4
2023-02-15T09:03:46.020Z,1023.3
2023-02-15T09:05:45.834Z,1023.3
2023-02-15T09:07:45.787Z,1023.3
2023-02-15T09:09:45.855Z,1023.3
2023-02-15T09:11:45.740Z,1023.2
2023-02-15T09:13:45.687Z,1023.2
2023-02-15T09:15:45.657Z,1023.2
2023-02-15T09:17:45.784Z,1023.2
2023-02-15T09:19:45.727Z,1023.1
2023-02-15T09:21:45.795Z,1023
2023-02-15T09:23:45.636Z,1022.9
2023-02-15T09:25:45.701Z,1022.9
2023-02-15T09:27:45.608Z,1023
2023-02-15T09:29:45.862Z,1022.9
2023-02-15T09:31:46.173Z,1023
2023-02-15T09:33:45.607Z,1023
2023-02-15T09:35:45.657Z,1023
2023-02-15T09:37:45.808Z,1023
2023-02-15T09:39:46.089Z,1022.9
2023-02-15T09:41:45.703Z,1022.8
2023-02-15T09:43:45.562Z,1022.8
2023-02-15T09:45:45.646Z,1022.9
2023-02-15T09:47:45.811Z,1022.9
2023-02-15T09:49:45.762Z,1022.8
2023-02-15T09:51:45.660Z,1022.8
2023-02-15T09:53:45.872Z,1022.8
2023-02-15T09:55:45.645Z,1022.8
2023-02-15T09:57:45.743Z,1022.6
2023-02-15T09:59:45.604Z,1022.6
2023-02-15T10:01:45.713Z,1022.5
2023-02-15T10:03:45.998Z,1022.4
2023-02-15T10:05:45.620Z,1022.5
2023-02-15T10:07:45.630Z,1022.5
2023-02-15T10:09:45.732Z,1022.4
2023-02-15T10:11:45.660Z,1022.3
2023-02-15T10:13:45.574Z,1022.4
2023-02-15T10:15:45.665Z,1022.3
2023-02-15T10:17:45.554Z,1022.2
2023-02-15T10:19:45.728Z,1022.2
2023-02-15T10:21:45.710Z,1022.3
2023-02-15T10:23:45.599Z,1022.3
2023-02-15T10:25:45.570Z,1022.4
2023-02-15T10:27:46.937Z,1022.6
2023-02-15T10:29:45.516Z,1022.7
2023-02-15T10:31:45.774Z,1022.7
2023-02-15T10:33:45.686Z,1022.7
2023-02-15T10:35:45.697Z,1022.7
2023-02-15T10:37:45.626Z,1022.7
2023-02-15T10:39:45.765Z,1022.8
2023-02-15T10:41:47.114Z,1022.8
2023-02-15T10:43:45.771Z,1023
2023-02-15T10:45:45.814Z,1023
2023-02-15T10:47:45.598Z,1023
2023-02-15T10:49:45.797Z,1022.9
2023-02-15T10:51:45.573Z,1022.8
2023-02-15T10:53:45.611Z,1022.7
2023-02-15T10:55:45.738Z,1022.7
2023-02-15T10:57:45.930Z,1022.8
2023-02-15T10:59:45.706Z,1022.9
2023-02-15T11:01:45.678Z,1022.9
2023-02-15T11:03:45.916Z,1022.9
2023-02-15T11:05:45.656Z,1022.8
2023-02-15T11:07:45.788Z,1022.8
2023-02-15T11:09:45.611Z,1022.8
2023-02-15T11:11:45.874Z,1022.8
2023-02-15T11:13:45.570Z,1022.8
2023-02-15T11:15:45.542Z,1022.8
2023-02-15T11:17:45.555Z,1023
2023-02-15T11:19:45.665Z,1023.1
2023-02-15T11:21:45.689Z,1023.2
2023-02-15T11:23:45.785Z,1023.2
2023-02-15T11:25:45.681Z,1023.1
2023-02-15T11:27:47.573Z,1023.1
2023-02-15T11:29:45.596Z,1023.1
2023-02-15T11:31:45.675Z,1023
2023-02-15T11:33:45.639Z,1023
2023-02-15T11:35:45.633Z,1022.9
2023-02-15T11:37:45.517Z,1022.8
2023-02-15T11:39:45.621Z,1022.7
2023-02-15T11:41:45.552Z,1022.8
2023-02-15T11:43:45.465Z,1022.7
2023-02-15T11:45:45.544Z,1022.7
2023-02-15T11:47:45.571Z,1022.7
2023-02-15T11:49:45.646Z,1022.7
2023-02-15T11:51:45.820Z,1022.7
2023-02-15T11:53:45.563Z,1022.9
2023-02-15T11:55:45.408Z,1022.9
2023-02-15T11:57:45.472Z,1022.9
2023-02-15T11:59:45.758Z,1022.8
2023-02-15T12:01:45.571Z,1022.8
2023-02-15T12:03:45.724Z,1022.8
2023-02-15T12:05:45.642Z,1022.9
2023-02-15T12:07:45.511Z,1022.8
2023-02-15T12:09:45.461Z,1022.8
2023-02-15T12:11:45.518Z,1022.8
2023-02-15T12:13:45.545Z,1022.7
2023-02-15T12:15:45.522Z,1022.6
2023-02-15T12:17:45.591Z,1022.7
2023-02-15T12:19:45.583Z,1022.8
2023-02-15T12:21:45.445Z,1022.9
2023-02-15T12:23:45.470Z,1023
2023-02-15T12:25:45.428Z,1023
2023-02-15T12:27:45.507Z,1023
2023-02-15T12:29:45.435Z,1023.1
2023-02-15T12:31:45.795Z,1023.1
2023-02-15T12:33:45.424Z,1023
2023-02-15T12:35:45.448Z,1023
2023-02-15T12:37:45.566Z,1023.1
2023-02-15T12:39:45.546Z,1023.1
2023-02-15T12:41:45.489Z,1023
2023-02-15T12:43:45.468Z,1023.1
2023-02-15T12:45:45.684Z,1023.1
2023-02-15T12:47:45.506Z,1023.1
2023-02-15T12:49:47.937Z,1023.1
2023-02-15T12:51:45.434Z,1023.2
2023-02-15T12:53:45.576Z,1023.2
2023-02-15T12:55:45.645Z,1023.2
2023-02-15T12:57:45.493Z,1023.2
2023-02-15T12:59:45.419Z,1023.3
2023-02-15T13:01:51.712Z,1023.3
2023-02-15T13:02:49.020Z,1023.3
2023-02-15T13:03:50.177Z,1023.4
2023-02-15T13:05:50.129Z,1023.4
2023-02-15T13:07:50.028Z,1023.4
2023-02-15T13:09:50.187Z,1023.3
2023-02-15T13:11:50.127Z,1023.2
2023-02-15T13:13:50.078Z,1023.2
2023-02-15T13:15:50.096Z,1023.3
2023-02-15T13:17:50.198Z,1023.3
2023-02-15T13:19:51.446Z,1023.2
2023-02-15T13:29:08.870Z,1023.1
2023-02-15T13:29:50.530Z,1023
2023-02-15T13:31:50.328Z,1023
2023-02-15T13:33:50.121Z,1023.2
2023-02-15T13:35:50.136Z,1023.3
2023-02-15T13:37:50.158Z,1023.2
2023-02-15T13:39:50.064Z,1023.1
2023-02-15T13:41:50.166Z,1023
2023-02-15T13:43:49.976Z,1023
2023-02-15T13:45:50.033Z,1023
2023-02-15T13:47:49.970Z,1023
2023-02-15T13:49:50.035Z,1022.9
2023-02-15T13:51:49.995Z,1023
2023-02-15T13:53:49.961Z,1023
2023-02-15T13:55:49.967Z,1023.1
2023-02-15T13:57:49.953Z,1023.1
2023-02-15T13:59:49.940Z,1023
2023-02-15T14:01:49.930Z,1023
2023-02-15T14:03:50.020Z,1023
2023-02-15T14:05:49.927Z,1023.1
2023-02-15T14:07:49.949Z,1023.2
2023-02-15T14:09:49.936Z,1023.1
2023-02-15T14:11:49.940Z,1023.1
2023-02-15T14:13:49.890Z,1023.1
2023-02-15T14:15:49.924Z,1023.2
2023-02-15T14:17:49.957Z,1023.1
2023-02-15T14:19:49.915Z,1023
2023-02-15T14:21:49.907Z,1023
2023-02-15T14:23:49.934Z,1023
2023-02-15T14:25:49.935Z,1023
2023-02-15T14:27:51.779Z,1022.9
2023-02-15T14:29:49.940Z,1023
2023-02-15T14:31:50.024Z,1023
2023-02-15T14:33:49.908Z,1023.1
2023-02-15T14:35:49.923Z,1023
2023-02-15T14:37:49.870Z,1023
2023-02-15T14:39:49.945Z,1023
2023-02-15T14:41:49.914Z,1023.1
2023-02-15T14:43:49.943Z,1023.1
2023-02-15T14:45:49.943Z,1023.2
2023-02-15T14:47:49.868Z,1023.2
2023-02-15T14:49:49.899Z,1023.1
2023-02-15T14:51:49.899Z,1023.1
2023-02-15T14:53:49.886Z,1023
2023-02-15T14:55:49.949Z,1023
2023-02-15T14:57:49.848Z,1023
2023-02-15T14:59:49.888Z,1023.1
2023-02-15T15:01:49.891Z,1023
2023-02-15T15:03:49.984Z,1023
2023-02-15T15:05:49.898Z,1023
2023-02-15T15:07:49.892Z,1023
2023-02-15T15:09:49.969Z,1023
2023-02-15T15:11:49.865Z,1023
2023-02-15T15:13:49.835Z,1023
2023-02-15T15:15:49.943Z,1022.9
2023-02-15T15:17:49.890Z,1022.9
2023-02-15T15:19:52.487Z,1022.8
2023-02-15T15:21:49.886Z,1022.9
2023-02-15T15:23:49.876Z,1022.9
2023-02-15T15:25:49.866Z,1022.8
2023-02-15T15:27:49.884Z,1022.8
2023-02-15T15:29:49.866Z,1022.9
2023-02-15T15:31:49.937Z,1022.9
2023-02-15T15:33:49.859Z,1022.9
2023-02-15T15:35:49.882Z,1022.9
2023-02-15T15:37:49.853Z,1022.9
2023-02-15T15:39:49.802Z,1022.9
2023-02-15T15:41:49.907Z,1022.9
2023-02-15T15:43:49.882Z,1022.9
2023-02-15T15:45:49.815Z,1022.7
2023-02-15T15:47:56.110Z,1022.7
2023-02-15T15:49:49.815Z,1022.7
2023-02-15T15:51:49.852Z,1022.9
2023-02-15T15:53:49.791Z,1022.8
2023-02-15T15:55:49.810Z,1022.7
2023-02-15T15:57:49.865Z,1022.8
2023-02-15T15:59:49.801Z,1022.7
2023-02-15T16:01:49.842Z,1022.9
2023-02-15T16:03:49.818Z,1022.7
2023-02-15T16:05:49.761Z,1022.7
2023-02-15T16:07:49.798Z,1022.7
2023-02-15T16:09:49.830Z,1022.7
2023-02-15T16:11:49.792Z,1022.7
2023-02-15T16:13:49.791Z,1022.6
2023-02-15T16:15:49.822Z,1022.7
2023-02-15T16:17:49.833Z,1022.7
2023-02-15T16:19:49.815Z,1022.7
2023-02-15T16:21:49.798Z,1022.6
2023-02-15T16:23:49.768Z,1022.7
2023-02-15T16:25:49.777Z,1022.7
2023-02-15T16:27:49.806Z,1022.7
2023-02-15T16:29:49.783Z,1022.5
2023-02-15T16:31:49.883Z,1022.5
2023-02-15T16:33:49.836Z,1022.4
2023-02-15T16:35:49.823Z,1022.4
2023-02-15T16:37:49.783Z,1022.4
2023-02-15T16:39:49.775Z,1022.2
2023-02-15T16:41:49.778Z,1022.2
2023-02-15T16:43:49.747Z,1022.2
2023-02-15T16:45:49.791Z,1022.2
2023-02-15T16:47:49.831Z,1022.2
2023-02-15T16:49:49.741Z,1022.2
2023-02-15T16:51:49.741Z,1022.2
2023-02-15T16:53:49.758Z,1022.3
2023-02-15T16:55:49.773Z,1022.3
2023-02-15T16:57:12.153Z,1022.3
2023-02-15T16:57:52.662Z,1022.2
2023-02-15T16:58:43.677Z,1022.2
2023-02-15T17:02:59.338Z,1022.1
2023-02-15T17:03:49.772Z,1022.1
2023-02-15T17:05:49.722Z,1022.1
2023-02-15T17:07:49.766Z,1022
2023-02-15T17:09:49.760Z,1021.9
2023-02-15T17:11:49.746Z,1021.8
2023-02-15T17:13:50.898Z,1021.7
2023-02-15T17:15:49.785Z,1021.7
2023-02-15T17:17:49.776Z,1021.7
2023-02-15T17:19:49.888Z,1021.6
2023-02-15T17:21:50.896Z,1021.6
2023-02-15T17:23:49.897Z,1021.6
2023-02-15T17:25:49.798Z,1021.5
2023-02-15T17:27:49.805Z,1021.4
2023-02-15T17:29:49.740Z,1021.3
2023-02-15T17:31:49.863Z,1021.2
2023-02-15T17:33:49.760Z,1021.2
2023-02-15T17:35:49.722Z,1021.2
2023-02-15T17:37:49.775Z,1021.2
2023-02-15T17:39:49.742Z,1021.2
2023-02-15T17:41:49.721Z,1021.2
2023-02-15T17:43:49.700Z,1021.3
2023-02-15T17:45:50.889Z,1021.3
2023-02-15T17:47:49.770Z,1021.3
2023-02-15T17:49:49.726Z,1021.2
2023-02-15T17:51:49.714Z,1021
2023-02-15T17:53:49.677Z,1021
2023-02-15T17:55:49.708Z,1021
2023-02-15T17:57:49.693Z,1021
2023-02-15T17:59:49.656Z,1020.9
2023-02-15T18:01:49.708Z,1020.9
2023-02-15T18:03:49.781Z,1020.8
2023-02-15T18:05:49.710Z,1020.8
2023-02-15T18:07:49.720Z,1020.7
2023-02-15T18:09:49.680Z,1020.7
2023-02-15T18:11:50.980Z,1020.6
2023-02-15T18:13:49.692Z,1020.6
2023-02-15T18:15:49.673Z,1020.6
2023-02-15T18:17:49.641Z,1020.6
2023-02-15T18:19:49.679Z,1020.6
2023-02-15T18:21:49.717Z,1020.5
2023-02-15T18:23:49.659Z,1020.4
2023-02-15T18:25:49.708Z,1020.3
2023-02-15T18:27:49.687Z,1020.2
2023-02-15T18:29:49.660Z,1020.1
2023-02-15T18:31:49.724Z,1020.2
2023-02-15T18:33:49.644Z,1020.2
2023-02-15T18:35:49.649Z,1020.2
2023-02-15T18:37:49.672Z,1020.2
2023-02-15T18:39:49.679Z,1020.1
2023-02-15T18:41:49.672Z,1020
2023-02-15T18:43:49.668Z,1020.2
2023-02-15T18:45:49.704Z,1020.1
2023-02-15T18:47:49.624Z,1020
2023-02-15T18:49:49.633Z,1019.9
2023-02-15T18:51:49.637Z,1019.9
2023-02-15T18:53:49.693Z,1019.9
2023-02-15T18:55:49.697Z,1019.9
2023-02-15T18:57:49.613Z,1020
2023-02-15T18:59:49.678Z,1019.8
2023-02-15T19:01:49.706Z,1019.9
2023-02-15T19:03:49.705Z,1019.9
2023-02-15T19:05:49.635Z,1019.8
2023-02-15T19:07:49.603Z,1019.9
2023-02-15T19:09:49.658Z,1019.8
2023-02-15T19:11:49.708Z,1019.7
2023-02-15T19:13:49.665Z,1019.6
2023-02-15T19:15:49.635Z,1019.5
2023-02-15T19:17:49.613Z,1019.5
2023-02-15T19:19:49.561Z,1019.5
2023-02-15T19:21:49.599Z,1019.5
2023-02-15T19:23:49.618Z,1019.4
2023-02-15T19:25:49.626Z,1019.4
2023-02-15T19:27:49.578Z,1019.3
2023-02-15T19:29:49.589Z,1019.3
2023-02-15T19:31:49.716Z,1019.2
2023-02-15T19:33:49.631Z,1019.2
2023-02-15T19:35:49.534Z,1019.2
2023-02-15T19:37:49.586Z,1019.3
2023-02-15T19:39:49.613Z,1019.3
2023-02-15T19:41:49.582Z,1019.4
2023-02-15T19:43:49.592Z,1019.4
2023-02-15T19:45:49.670Z,1019.2
2023-02-15T19:47:49.569Z,1019.3
2023-02-15T19:49:49.626Z,1019.3
2023-02-15T19:51:49.592Z,1019.3
2023-02-15T19:53:49.559Z,1019.3
2023-02-15T19:55:49.611Z,1019.3
2023-02-15T19:57:49.594Z,1019.2
2023-02-15T19:59:49.602Z,1019.3
2023-02-15T20:01:49.826Z,1019.3
2023-02-15T20:03:49.581Z,1019.3
2023-02-15T20:05:49.573Z,1019.2
2023-02-15T20:07:49.537Z,1019.3
2023-02-15T20:09:49.546Z,1019.3
2023-02-15T20:11:50.563Z,1019.3
2023-02-15T20:13:49.582Z,1019.2
2023-02-15T20:15:49.584Z,1019.2
2023-02-15T20:17:49.536Z,1019.2
2023-02-15T20:19:49.570Z,1019.2
2023-02-15T20:21:49.558Z,1019.1
2023-02-15T20:23:49.559Z,1019.2
2023-02-15T20:25:49.559Z,1019.2
2023-02-15T20:27:49.514Z,1019.1
2023-02-15T20:29:49.510Z,1019.1
2023-02-15T20:31:49.700Z,1019.1
2023-02-15T20:33:49.551Z,1019.1
2023-02-15T20:35:49.529Z,1019.1
2023-02-15T20:37:49.486Z,1019
2023-02-15T20:39:49.538Z,1019.1
2023-02-15T20:41:49.680Z,1019.1
2023-02-15T20:43:49.559Z,1019
2023-02-15T20:45:49.540Z,1019
2023-02-15T20:47:49.543Z,1019
2023-02-15T20:49:49.495Z,1019
2023-02-15T20:51:49.523Z,1018.9
2023-02-15T20:53:49.506Z,1018.9
2023-02-15T20:55:49.529Z,1019
2023-02-15T20:57:49.501Z,1019
2023-02-15T20:59:49.513Z,1019.1
2023-02-15T21:01:49.538Z,1019.1
2023-02-15T21:03:49.548Z,1019.2
2023-02-15T21:05:49.522Z,1019.1
2023-02-15T21:07:49.487Z,1019.1
2023-02-15T21:09:49.476Z,1019.1
2023-02-15T21:11:49.511Z,1019
2023-02-15T21:13:49.517Z,1019
2023-02-15T21:15:49.585Z,1019
2023-02-15T21:17:49.459Z,1019.1
2023-02-15T21:19:49.472Z,1019
2023-02-15T21:21:49.462Z,1019.1
2023-02-15T21:23:49.532Z,1019
2023-02-15T21:25:49.492Z,1019.1
2023-02-15T21:27:49.494Z,1019
2023-02-15T21:29:49.471Z,1019
2023-02-15T21:31:49.518Z,1019
2023-02-15T21:33:49.473Z,1018.9
2023-02-15T21:35:49.495Z,1019
2023-02-15T21:37:49.475Z,1019
2023-02-15T21:39:49.458Z,1019
2023-02-15T21:41:49.431Z,1019.1
2023-02-15T21:43:49.478Z,1019
2023-02-15T21:45:49.442Z,1019.1
2023-02-15T21:47:49.454Z,1019.1
2023-02-15T21:49:49.449Z,1019.1
2023-02-15T21:51:49.459Z,1019.2
2023-02-15T21:53:49.437Z,1019.2
2023-02-15T21:55:49.383Z,1019.1
2023-02-15T21:57:49.446Z,1019.2
2023-02-15T21:59:49.429Z,1019.2
2023-02-15T22:01:49.426Z,1019.3
2023-02-15T22:03:49.470Z,1019.3
2023-02-15T22:05:49.401Z,1019.3
2023-02-15T22:07:49.449Z,1019.4
2023-02-15T22:09:49.423Z,1019.5
2023-02-15T22:11:49.392Z,1019.5
2023-02-15T22:13:49.439Z,1019.5
2023-02-15T22:15:49.400Z,1019.4
2023-02-15T22:17:49.402Z,1019.4
2023-02-15T22:18:36.916Z,1019.4
2023-02-15T22:20:17.924Z,1019.4
2023-02-15T22:22:13.007Z,1019.4
2023-02-15T22:24:13.269Z,1019.4
2023-02-15T22:26:13.246Z,1019.4
2023-02-15T22:28:12.053Z,1019.4
2023-02-15T22:30:13.027Z,1019.4
2023-02-15T22:32:13.137Z,1019.4
2023-02-15T22:34:12.075Z,1019.3
2023-02-15T22:36:11.897Z,1019.3
2023-02-15T22:38:16.163Z,1019.3
2023-02-15T22:41:17.816Z,1019.3
2023-02-15T22:41:29.682Z,1019.3
2023-02-15T22:43:29.656Z,1019.3
2023-02-15T22:45:29.735Z,1019.3
2023-02-15T22:47:29.723Z,1019.4
2023-02-15T22:49:29.756Z,1019.4
2023-02-15T22:51:29.676Z,1019.5
2023-02-15T22:53:29.647Z,1019.5
2023-02-15T22:55:29.768Z,1019.4
2023-02-15T22:57:29.680Z,1019.4
2023-02-15T22:59:23.579Z,1019.4
2023-02-15T23:00:51.965Z,1019.5
2023-02-15T23:02:51.994Z,1019.5
2023-02-15T23:04:51.899Z,1019.5
2023-02-15T23:06:52.006Z,1019.4
2023-02-15T23:08:51.952Z,1019.4
2023-02-15T23:10:51.922Z,1019.4
2023-02-15T23:12:51.870Z,1019.4
2023-02-15T23:15:02.228Z,1019.5
2023-02-15T23:16:52.274Z,1019.5
2023-02-15T23:18:51.937Z,1019.6
2023-02-15T23:20:51.886Z,1019.6
2023-02-15T23:22:29.349Z,1019.6
2023-02-15T23:24:07.464Z,1019.7
2023-02-15T23:26:07.442Z,1019.7
2023-02-15T23:28:07.577Z,1019.7
2023-02-15T23:30:07.437Z,1019.8
2023-02-15T23:32:07.622Z,1019.8
2023-02-15T23:34:07.473Z,1019.8
2023-02-15T23:36:07.479Z,1019.9
2023-02-15T23:38:11.655Z,1019.9
2023-02-15T23:40:07.347Z,1019.9
2023-02-15T23:42:07.315Z,1019.9
2023-02-15T23:44:07.358Z,1019.9
2023-02-15T23:46:07.358Z,1019.9
2023-02-15T23:48:07.326Z,1019.9
2023-02-15T23:50:07.383Z,1019.9
2023-02-15T23:52:07.352Z,1019.9
2023-02-15T23:54:07.492Z,1019.9
2023-02-15T23:56:07.289Z,1019.9
2023-02-15T23:58:07.324Z,1020
